Time;durP1;ratioP1;P1;durP2;ratioP2;P2;SDS_P1;SDS_P2;PMS_P1;PMS_P2;Temp;Humidity;BMP_temperature;BMP_pressure;BME280_temperature;BME280_humidity;BME280_pressure;Samples;Min_cycle;Max_cycle;Signal;HPM_P1;HPM_P2
2022/05/14 00:00:30;;;;;;;11.27;9.60;;;;;;;;;;5094450;28;20479;-68
2022/05/14 00:02:56;;;;;;;11.65;8.95;;;;;;;;;;5094058;28;20071;-68
2022/05/14 00:05:23;;;;;;;11.65;9.95;;;;;;;;;;5094433;28;20044;-68
2022/05/14 00:07:51;;;;;;;10.52;8.95;;;;;;;;;;5094116;28;20036;-68
2022/05/14 00:10:18;;;;;;;13.30;8.88;;;;;;;;;;5094394;28;20036;-68
2022/05/14 00:15:29;;;;;;;12.13;9.50;;;;;;;;;;5114431;28;20128;-68
2022/05/14 00:17:55;;;;;;;10.70;9.55;;;;;;;;;;5113924;28;20046;-68
2022/05/14 00:20:25;;;;;;;10.00;8.98;;;;;;;;;;5114367;28;20040;-68
2022/05/14 00:22:52;;;;;;;13.95;10.75;;;;;;;;;;5114013;28;20398;-68
2022/05/14 00:25:19;;;;;;;11.32;9.68;;;;;;;;;;5114292;28;20040;-68
2022/05/14 00:27:46;;;;;;;12.63;10.10;;;;;;;;;;5116427;28;20118;-68
2022/05/14 00:30:13;;;;;;;13.57;10.40;;;;;;;;;;5118483;28;20043;-68
2022/05/14 00:32:39;;;;;;;15.25;10.57;;;;;;;;;;5117734;28;20035;-68
2022/05/14 00:35:06;;;;;;;11.45;9.88;;;;;;;;;;5117425;28;20516;-68
2022/05/14 00:37:32;;;;;;;13.15;10.30;;;;;;;;;;5117522;28;20036;-68
2022/05/14 00:39:59;;;;;;;13.13;9.85;;;;;;;;;;5117460;28;20558;-68
2022/05/14 00:42:25;;;;;;;11.95;10.02;;;;;;;;;;5117716;28;20040;-69
2022/05/14 00:44:52;;;;;;;10.60;9.50;;;;;;;;;;5117575;28;20131;-68
2022/05/14 00:47:19;;;;;;;13.73;9.68;;;;;;;;;;5117244;28;20031;-69
2022/05/14 00:49:45;;;;;;;10.73;9.38;;;;;;;;;;5117399;28;20043;-68
2022/05/14 00:52:16;;;;;;;10.82;9.63;;;;;;;;;;5117238;28;20040;-68
2022/05/14 00:54:44;;;;;;;10.98;9.68;;;;;;;;;;5117758;28;20118;-68
2022/05/14 00:57:12;;;;;;;10.95;9.85;;;;;;;;;;5117503;28;20510;-68
2022/05/14 00:59:38;;;;;;;12.07;9.57;;;;;;;;;;5117081;28;20040;-68
2022/05/14 01:02:06;;;;;;;11.25;9.38;;;;;;;;;;5117379;28;20063;-68
2022/05/14 01:04:33;;;;;;;12.73;9.30;;;;;;;;;;5117068;28;20052;-68
2022/05/14 01:06:59;;;;;;;14.20;9.65;;;;;;;;;;5117217;28;20035;-68
2022/05/14 01:09:25;;;;;;;13.48;10.35;;;;;;;;;;5117114;28;20126;-68
2022/05/14 01:11:51;;;;;;;13.20;9.90;;;;;;;;;;5117109;28;20100;-68
2022/05/14 01:14:20;;;;;;;11.07;9.98;;;;;;;;;;5117433;28;20386;-68
2022/05/14 01:16:46;;;;;;;12.75;10.48;;;;;;;;;;5116959;28;20038;-68
2022/05/14 01:19:12;;;;;;;10.55;9.45;;;;;;;;;;5116865;28;20051;-68
2022/05/14 01:21:42;;;;;;;11.13;9.98;;;;;;;;;;5117225;28;20036;-68
2022/05/14 01:26:58;;;;;;;12.07;9.83;;;;;;;;;;5116676;28;20086;-68
2022/05/14 01:29:26;;;;;;;13.23;10.05;;;;;;;;;;5116703;28;20082;-68
2022/05/14 01:31:53;;;;;;;12.23;9.35;;;;;;;;;;5116723;28;20557;-68
2022/05/14 01:34:20;;;;;;;12.35;10.38;;;;;;;;;;5116995;28;20048;-68
2022/05/14 01:36:47;;;;;;;12.88;10.80;;;;;;;;;;5117104;28;20049;-68
2022/05/14 01:39:13;;;;;;;13.00;10.40;;;;;;;;;;5116487;28;20070;-68
2022/05/14 01:41:39;;;;;;;12.80;10.25;;;;;;;;;;5116806;28;20039;-68
2022/05/14 01:44:05;;;;;;;15.45;10.43;;;;;;;;;;5117342;28;20056;-68
2022/05/14 01:46:31;;;;;;;13.50;10.25;;;;;;;;;;5116452;28;20088;-68
2022/05/14 01:48:58;;;;;;;12.70;9.93;;;;;;;;;;5116231;28;20096;-68
2022/05/14 01:51:24;;;;;;;10.90;9.80;;;;;;;;;;5116680;28;20040;-68
2022/05/14 01:53:50;;;;;;;12.48;10.55;;;;;;;;;;5116525;28;20555;-69
2022/05/14 01:56:17;;;;;;;13.60;10.07;;;;;;;;;;5116490;28;20032;-68
2022/05/14 01:58:43;;;;;;;14.40;10.50;;;;;;;;;;5116753;28;20108;-68
2022/05/14 02:01:14;;;;;;;12.23;10.27;;;;;;;;;;5116344;28;20032;-68
2022/05/14 02:03:42;;;;;;;11.23;9.85;;;;;;;;;;5116212;28;20056;-68
2022/05/14 02:06:08;;;;;;;11.80;10.38;;;;;;;;;;5116341;28;20035;-68
2022/05/14 02:08:35;;;;;;;11.30;10.13;;;;;;;;;;5116011;28;20482;-68
2022/05/14 02:11:01;;;;;;;14.23;10.63;;;;;;;;;;5115945;28;20486;-68
2022/05/14 02:13:28;;;;;;;11.38;10.27;;;;;;;;;;5116184;28;20063;-68
2022/05/14 02:15:55;;;;;;;11.63;10.50;;;;;;;;;;5115793;28;20160;-68
2022/05/14 02:18:21;;;;;;;11.40;10.20;;;;;;;;;;5115636;28;20044;-68
2022/05/14 02:20:47;;;;;;;12.93;10.15;;;;;;;;;;5115706;28;20035;-68
2022/05/14 02:23:14;;;;;;;13.13;10.38;;;;;;;;;;5115967;28;20056;-68
2022/05/14 02:25:41;;;;;;;11.35;10.10;;;;;;;;;;5115779;28;20046;-68
2022/05/14 02:28:07;;;;;;;11.07;9.98;;;;;;;;;;5116185;28;20069;-68
2022/05/14 02:30:33;;;;;;;11.98;9.68;;;;;;;;;;5115294;28;20590;-68
2022/05/14 02:32:59;;;;;;;12.23;10.32;;;;;;;;;;5115140;28;20409;-68
2022/05/14 02:35:25;;;;;;;10.95;9.88;;;;;;;;;;5115762;28;20493;-68
2022/05/14 02:37:51;;;;;;;11.77;9.82;;;;;;;;;;5115230;28;20046;-68
2022/05/14 02:40:18;;;;;;;14.68;10.60;;;;;;;;;;5097170;28;20478;-68
2022/05/14 02:42:45;;;;;;;11.43;10.20;;;;;;;;;;5115213;28;20039;-68
2022/05/14 02:45:12;;;;;;;14.13;9.85;;;;;;;;;;5115059;28;20126;-68
2022/05/14 02:47:38;;;;;;;14.48;9.73;;;;;;;;;;5114897;28;20047;-68
2022/05/14 02:50:05;;;;;;;10.75;9.23;;;;;;;;;;5114521;28;20031;-68
2022/05/14 02:52:32;;;;;;;12.95;10.90;;;;;;;;;;5114973;28;20047;-68
2022/05/14 02:54:58;;;;;;;11.05;9.90;;;;;;;;;;5114965;28;20043;-68
2022/05/14 02:57:25;;;;;;;11.23;9.25;;;;;;;;;;5114874;28;20035;-68
2022/05/14 02:59:51;;;;;;;12.60;10.30;;;;;;;;;;5114879;28;20531;-68
2022/05/14 03:02:17;;;;;;;11.32;9.95;;;;;;;;;;5114831;28;20070;-68
2022/05/14 03:04:44;;;;;;;14.20;10.32;;;;;;;;;;5114261;28;20533;-68
2022/05/14 03:07:11;;;;;;;11.95;10.02;;;;;;;;;;5115012;28;20043;-68
2022/05/14 03:09:38;;;;;;;15.23;10.75;;;;;;;;;;5114755;28;20061;-68
2022/05/14 03:12:05;;;;;;;12.88;10.25;;;;;;;;;;5115038;28;20039;-68
2022/05/14 03:14:31;;;;;;;11.98;10.75;;;;;;;;;;5114870;28;20060;-68
2022/05/14 03:16:57;;;;;;;11.15;9.48;;;;;;;;;;5115170;28;20031;-68
2022/05/14 03:19:24;;;;;;;11.40;10.23;;;;;;;;;;5114798;28;20036;-68
2022/05/14 03:21:50;;;;;;;12.68;9.98;;;;;;;;;;5114651;28;20498;-68
2022/05/14 03:24:16;;;;;;;14.07;9.73;;;;;;;;;;5115297;28;20063;-68
2022/05/14 03:26:43;;;;;;;13.02;10.60;;;;;;;;;;5114591;28;20036;-68
2022/05/14 03:29:10;;;;;;;12.35;10.23;;;;;;;;;;5114562;28;20521;-68
2022/05/14 03:31:37;;;;;;;12.38;10.10;;;;;;;;;;5114701;28;20122;-68
2022/05/14 03:34:03;;;;;;;11.57;9.55;;;;;;;;;;5114862;28;20051;-68
2022/05/14 03:36:30;;;;;;;13.63;9.75;;;;;;;;;;5114759;28;20112;-68
2022/05/14 03:38:56;;;;;;;13.90;9.85;;;;;;;;;;5114762;28;20092;-68
2022/05/14 03:41:22;;;;;;;11.50;9.73;;;;;;;;;;5114747;28;20024;-68
2022/05/14 03:43:49;;;;;;;12.50;9.63;;;;;;;;;;5114796;28;20055;-68
2022/05/14 03:46:16;;;;;;;10.80;9.70;;;;;;;;;;5114676;28;20085;-68
2022/05/14 03:48:42;;;;;;;11.98;9.75;;;;;;;;;;5114204;28;20527;-68
2022/05/14 03:51:08;;;;;;;13.63;9.32;;;;;;;;;;5114844;28;20180;-68
2022/05/14 03:53:36;;;;;;;13.23;9.65;;;;;;;;;;5115194;28;20505;-68
2022/05/14 03:56:02;;;;;;;10.52;9.43;;;;;;;;;;5114721;28;20160;-68
2022/05/14 03:58:28;;;;;;;12.45;10.00;;;;;;;;;;5114266;28;20044;-68
2022/05/14 04:00:55;;;;;;;11.50;10.23;;;;;;;;;;5114545;28;20036;-68
2022/05/14 04:03:21;;;;;;;11.25;9.60;;;;;;;;;;5117931;28;20054;-68
2022/05/14 04:05:47;;;;;;;11.10;9.63;;;;;;;;;;5118103;28;20039;-68
2022/05/14 04:08:13;;;;;;;12.48;10.40;;;;;;;;;;5118369;28;20032;-68
2022/05/14 04:10:39;;;;;;;11.27;10.18;;;;;;;;;;5118530;28;20573;-68
2022/05/14 04:13:05;;;;;;;13.88;10.23;;;;;;;;;;5117758;28;20048;-68
2022/05/14 04:15:31;;;;;;;11.20;10.02;;;;;;;;;;5118935;28;20126;-68
2022/05/14 04:17:58;;;;;;;11.75;9.70;;;;;;;;;;5100146;28;20071;-68
2022/05/14 04:20:24;;;;;;;15.02;10.20;;;;;;;;;;5118056;28;20027;-68
2022/05/14 04:22:50;;;;;;;11.90;9.55;;;;;;;;;;5117719;28;20497;-68
2022/05/14 04:25:17;;;;;;;10.88;9.68;;;;;;;;;;5118004;28;20031;-68
2022/05/14 04:27:44;;;;;;;12.98;9.70;;;;;;;;;;5117721;28;20040;-68
2022/05/14 04:30:12;;;;;;;13.70;9.90;;;;;;;;;;5117585;28;20032;-68
2022/05/14 04:32:38;;;;;;;10.60;9.48;;;;;;;;;;5117834;28;20043;-68
2022/05/14 04:35:04;;;;;;;11.20;9.32;;;;;;;;;;5117586;28;20043;-68
2022/05/14 04:37:30;;;;;;;11.32;9.52;;;;;;;;;;5117520;28;20071;-68
2022/05/14 04:39:57;;;;;;;10.65;9.52;;;;;;;;;;5118051;28;20039;-68
2022/05/14 04:42:23;;;;;;;10.32;9.35;;;;;;;;;;5117355;28;20085;-68
2022/05/14 04:44:49;;;;;;;10.77;9.50;;;;;;;;;;5117794;28;20100;-69
2022/05/14 04:47:16;;;;;;;10.40;9.32;;;;;;;;;;5117761;28;20039;-68
2022/05/14 04:49:44;;;;;;;10.63;9.57;;;;;;;;;;5117125;28;20031;-68
2022/05/14 04:52:10;;;;;;;10.57;8.90;;;;;;;;;;5117520;28;20031;-68
2022/05/14 04:54:37;;;;;;;10.40;9.30;;;;;;;;;;5117711;28;20039;-68
2022/05/14 04:57:04;;;;;;;10.52;8.70;;;;;;;;;;5117486;28;20092;-68
2022/05/14 04:59:30;;;;;;;9.80;8.82;;;;;;;;;;5117365;28;20065;-68
2022/05/14 05:04:45;;;;;;;9.85;8.85;;;;;;;;;;5116548;28;20541;-68
2022/05/14 05:07:11;;;;;;;10.00;8.57;;;;;;;;;;5117238;28;20127;-68
2022/05/14 05:09:38;;;;;;;9.65;8.63;;;;;;;;;;5116934;28;20039;-68
2022/05/14 05:12:04;;;;;;;10.50;8.30;;;;;;;;;;5116744;28;20031;-68
2022/05/14 05:14:31;;;;;;;10.50;8.60;;;;;;;;;;5116644;28;20110;-68
2022/05/14 05:17:00;;;;;;;11.38;8.52;;;;;;;;;;5117068;28;20525;-68
2022/05/14 05:19:26;;;;;;;8.77;7.93;;;;;;;;;;5116704;28;20475;-68
2022/05/14 05:21:52;;;;;;;8.02;6.95;;;;;;;;;;5116670;28;20482;-68
2022/05/14 05:24:18;;;;;;;9.73;7.25;;;;;;;;;;5117269;28;20055;-68
2022/05/14 05:26:44;;;;;;;7.25;6.53;;;;;;;;;;5116695;28;20045;-68
2022/05/14 05:29:10;;;;;;;9.10;6.43;;;;;;;;;;5116810;28;20044;-69
2022/05/14 05:31:39;;;;;;;6.95;6.25;;;;;;;;;;5116481;28;20038;-69
2022/05/14 05:34:05;;;;;;;8.77;5.53;;;;;;;;;;5116194;28;20043;-69
2022/05/14 05:36:31;;;;;;;6.95;6.25;;;;;;;;;;5116379;28;20529;-69
2022/05/14 05:38:58;;;;;;;9.23;5.88;;;;;;;;;;5116606;28;20119;-69
2022/05/14 05:41:24;;;;;;;7.43;5.38;;;;;;;;;;5098805;28;20123;-69
2022/05/14 05:43:50;;;;;;;5.47;4.97;;;;;;;;;;5116167;28;20621;-69
2022/05/14 05:46:17;;;;;;;5.50;5.00;;;;;;;;;;5116581;28;20035;-69
2022/05/14 05:48:43;;;;;;;5.47;5.05;;;;;;;;;;5116541;28;20071;-69
2022/05/14 05:51:10;;;;;;;6.75;4.68;;;;;;;;;;5116609;28;20024;-69
2022/05/14 05:59:07;;;;;;;7.82;4.82;;;;;;;;;;5115740;28;20088;-69
2022/05/14 06:01:33;;;;;;;5.53;5.03;;;;;;;;;;5116048;28;20127;-69
2022/05/14 06:03:59;;;;;;;5.72;4.78;;;;;;;;;;5116377;28;20055;-69
2022/05/14 06:06:26;;;;;;;4.65;4.28;;;;;;;;;;5116333;28;20039;-69
2022/05/14 06:08:53;;;;;;;4.95;4.55;;;;;;;;;;5115745;28;20040;-69
2022/05/14 06:11:19;;;;;;;8.20;4.70;;;;;;;;;;5115855;28;20051;-69
2022/05/14 06:13:45;;;;;;;5.72;4.35;;;;;;;;;;5114839;27;20062;-69
2022/05/14 06:16:12;;;;;;;5.43;4.20;;;;;;;;;;5115386;28;20039;-69
2022/05/14 06:18:38;;;;;;;8.35;4.13;;;;;;;;;;5114963;28;20460;-69
2022/05/14 06:21:05;;;;;;;6.70;4.75;;;;;;;;;;5114326;28;20118;-69
2022/05/14 06:23:32;;;;;;;6.47;4.20;;;;;;;;;;5116238;28;20048;-69
2022/05/14 06:25:58;;;;;;;4.93;4.40;;;;;;;;;;5114438;28;20368;-69
2022/05/14 06:28:24;;;;;;;4.40;4.00;;;;;;;;;;5115571;28;20508;-69
2022/05/14 06:30:50;;;;;;;5.13;4.65;;;;;;;;;;5115723;28;20035;-69
2022/05/14 06:33:17;;;;;;;4.80;4.38;;;;;;;;;;5115807;28;20464;-69
2022/05/14 06:35:43;;;;;;;6.32;3.92;;;;;;;;;;5114791;28;20040;-69
2022/05/14 06:38:09;;;;;;;4.80;4.40;;;;;;;;;;5114715;28;20043;-69
2022/05/14 06:40:36;;;;;;;5.13;4.53;;;;;;;;;;5116065;28;20043;-69
2022/05/14 06:43:03;;;;;;;5.95;4.20;;;;;;;;;;5115754;28;20043;-69
2022/05/14 06:45:30;;;;;;;4.95;4.28;;;;;;;;;;5115101;28;20027;-69
2022/05/14 06:47:57;;;;;;;4.43;4.00;;;;;;;;;;5115450;28;20046;-69
2022/05/14 06:50:24;;;;;;;4.28;3.88;;;;;;;;;;5114992;28;20092;-69
2022/05/14 06:52:53;;;;;;;5.80;4.07;;;;;;;;;;5115401;28;20047;-69
2022/05/14 06:55:22;;;;;;;6.18;4.10;;;;;;;;;;5114505;28;20119;-69
2022/05/14 06:57:50;;;;;;;4.18;3.78;;;;;;;;;;5115545;28;20535;-69
2022/05/14 07:00:16;;;;;;;4.97;4.53;;;;;;;;;;5114522;28;20078;-69
2022/05/14 07:02:43;;;;;;;4.38;4.00;;;;;;;;;;5113713;28;20050;-69
2022/05/14 07:07:54;;;;;;;6.68;4.00;;;;;;;;;;5113560;28;20108;-69
2022/05/14 07:10:21;;;;;;;4.70;3.42;;;;;;;;;;5111552;28;20073;-69
2022/05/14 07:12:47;;;;;;;5.43;3.45;;;;;;;;;;5100194;28;20056;-69
2022/05/14 07:15:13;;;;;;;4.30;3.90;;;;;;;;;;5110661;28;20119;-70
2022/05/14 07:17:41;;;;;;;4.57;4.13;;;;;;;;;;5114464;28;20045;-70
2022/05/14 07:20:07;;;;;;;4.15;3.75;;;;;;;;;;5114941;28;20059;-70
2022/05/14 07:22:33;;;;;;;5.00;4.25;;;;;;;;;;5114555;28;20050;-70
2022/05/14 07:24:59;;;;;;;5.82;3.97;;;;;;;;;;5114333;28;20164;-70
2022/05/14 07:27:25;;;;;;;5.95;4.20;;;;;;;;;;5114798;28;20044;-70
2022/05/14 07:29:51;;;;;;;4.50;4.10;;;;;;;;;;5114467;28;20035;-70
2022/05/14 07:32:19;;;;;;;7.00;4.20;;;;;;;;;;5114126;28;20039;-70
2022/05/14 07:34:45;;;;;;;7.80;4.60;;;;;;;;;;5114364;28;20111;-71
2022/05/14 07:37:13;;;;;;;5.43;4.25;;;;;;;;;;5117680;28;20573;-70
2022/05/14 07:39:45;;;;;;;7.72;4.82;;;;;;;;;;5118723;28;20122;-70
2022/05/14 07:42:14;;;;;;;6.15;4.60;;;;;;;;;;5118448;28;20044;-70
2022/05/14 07:44:41;;;;;;;6.18;4.90;;;;;;;;;;5118857;28;20048;-70
2022/05/14 07:47:08;;;;;;;4.80;4.38;;;;;;;;;;5118519;28;20039;-69
2022/05/14 07:49:34;;;;;;;5.35;4.85;;;;;;;;;;5118495;28;20040;-69
2022/05/14 07:52:01;;;;;;;6.07;4.82;;;;;;;;;;5117400;28;20031;-69
2022/05/14 07:54:28;;;;;;;8.13;4.90;;;;;;;;;;5118539;28;20079;-69
2022/05/14 07:56:55;;;;;;;5.80;4.55;;;;;;;;;;5117648;28;20039;-69
2022/05/14 07:59:21;;;;;;;6.20;4.68;;;;;;;;;;5118049;28;20069;-69
2022/05/14 08:01:48;;;;;;;9.65;4.65;;;;;;;;;;5117977;28;20027;-69
2022/05/14 08:04:14;;;;;;;8.48;4.35;;;;;;;;;;5117416;28;20059;-69
2022/05/14 08:06:40;;;;;;;4.55;4.15;;;;;;;;;;5117609;28;20040;-69
2022/05/14 08:09:06;;;;;;;6.55;4.57;;;;;;;;;;5117763;28;20197;-69
2022/05/14 08:11:33;;;;;;;5.25;4.68;;;;;;;;;;5118064;28;20039;-69
2022/05/14 08:13:59;;;;;;;6.40;4.47;;;;;;;;;;5116886;28;20135;-69
2022/05/14 08:16:26;;;;;;;7.65;4.70;;;;;;;;;;5117718;28;20560;-69
2022/05/14 08:18:52;;;;;;;7.53;4.93;;;;;;;;;;5117530;28;20130;-69
2022/05/14 08:26:49;;;;;;;9.80;5.47;;;;;;;;;;5104993;28;20051;-70
2022/05/14 08:29:16;;;;;;;7.47;4.28;;;;;;;;;;5117309;28;20032;-69
2022/05/14 08:31:43;;;;;;;6.97;4.65;;;;;;;;;;5117170;28;20037;-69
2022/05/14 08:34:09;;;;;;;7.68;4.93;;;;;;;;;;5120470;28;20047;-71
2022/05/14 08:36:36;;;;;;;9.27;4.57;;;;;;;;;;5109539;28;20035;-70
2022/05/14 08:39:02;;;;;;;7.97;4.47;;;;;;;;;;5117549;28;20049;-70
2022/05/14 08:41:30;;;;;;;5.93;4.47;;;;;;;;;;5118076;28;20039;-70
2022/05/14 08:43:59;;;;;;;8.57;4.75;;;;;;;;;;5117502;28;20182;-70
2022/05/14 08:46:26;;;;;;;7.00;4.78;;;;;;;;;;5117609;28;20474;-69
2022/05/14 08:48:54;;;;;;;10.60;4.82;;;;;;;;;;5116694;28;20555;-70
2022/05/14 08:51:28;;;;;;;7.97;4.88;;;;;;;;;;5117515;28;20044;-70
2022/05/14 08:53:54;;;;;;;6.28;4.57;;;;;;;;;;5117489;28;20036;-72
2022/05/14 08:56:24;;;;;;;9.82;5.30;;;;;;;;;;5117636;28;20035;-71
2022/05/14 08:59:03;;;;;;;7.18;4.45;;;;;;;;;;5117775;28;20059;-71
2022/05/14 09:01:30;;;;;;;13.40;5.53;;;;;;;;;;5117583;28;20048;-71
2022/05/14 09:03:57;;;;;;;8.27;4.65;;;;;;;;;;5117375;28;20074;-71
2022/05/14 09:06:23;;;;;;;7.43;4.68;;;;;;;;;;5117252;28;20074;-72
2022/05/14 09:08:49;;;;;;;7.75;4.75;;;;;;;;;;5115537;28;20114;-72
2022/05/14 09:11:21;;;;;;;7.43;4.72;;;;;;;;;;5117179;28;20126;-73
2022/05/14 09:13:53;;;;;;;7.78;5.20;;;;;;;;;;5117277;28;20148;-72
2022/05/14 09:16:26;;;;;;;6.78;5.22;;;;;;;;;;5115773;28;20074;-72
2022/05/14 09:18:53;;;;;;;7.82;5.15;;;;;;;;;;5116296;28;20048;-72
2022/05/14 09:21:27;;;;;;;5.85;4.75;;;;;;;;;;5116075;28;20047;-72
2022/05/14 09:24:00;;;;;;;8.75;4.68;;;;;;;;;;5116280;28;20052;-72
2022/05/14 09:26:30;;;;;;;6.38;4.72;;;;;;;;;;5116526;28;20035;-72
2022/05/14 09:29:01;;;;;;;9.52;5.18;;;;;;;;;;5117511;28;20062;-72
2022/05/14 09:31:36;;;;;;;7.22;4.90;;;;;;;;;;5116324;28;20085;-71
2022/05/14 09:34:07;;;;;;;5.25;4.45;;;;;;;;;;5116450;28;20051;-71
2022/05/14 09:36:36;;;;;;;8.98;4.97;;;;;;;;;;5116529;28;20093;-71
2022/05/14 09:39:15;;;;;;;6.20;5.25;;;;;;;;;;5116543;28;20042;-72
2022/05/14 09:41:43;;;;;;;7.95;5.00;;;;;;;;;;5116354;28;20062;-72
2022/05/14 09:44:14;;;;;;;6.88;4.63;;;;;;;;;;5116935;28;20052;-72
2022/05/14 09:46:40;;;;;;;7.47;4.65;;;;;;;;;;5116547;28;20085;-71
2022/05/14 09:49:08;;;;;;;8.75;5.03;;;;;;;;;;5115993;28;20042;-71
2022/05/14 09:51:47;;;;;;;8.13;4.53;;;;;;;;;;5116149;28;20039;-70
2022/05/14 09:54:18;;;;;;;7.00;5.07;;;;;;;;;;5116293;28;20050;-71
2022/05/14 09:56:44;;;;;;;9.30;5.35;;;;;;;;;;5116165;28;20035;-71
2022/05/14 09:59:13;;;;;;;12.48;5.18;;;;;;;;;;5114454;28;20059;-69
2022/05/14 10:01:41;;;;;;;6.47;4.97;;;;;;;;;;5113073;28;20502;-71
2022/05/14 10:04:11;;;;;;;11.00;5.40;;;;;;;;;;5114963;28;20050;-74
2022/05/14 10:07:07;;;;;;;8.38;4.85;;;;;;;;;;5114992;28;20028;-70
2022/05/14 10:09:33;;;;;;;8.65;4.82;;;;;;;;;;5097956;28;20056;-70
2022/05/14 10:12:23;;;;;;;9.07;5.38;;;;;;;;;;5115681;28;20383;-70
2022/05/14 10:14:58;;;;;;;6.00;4.93;;;;;;;;;;5105650;28;20055;-70
2022/05/14 10:17:27;;;;;;;5.78;4.78;;;;;;;;;;5115940;28;20508;-70
2022/05/14 10:19:53;;;;;;;5.45;4.93;;;;;;;;;;5115432;28;20494;-69
2022/05/14 10:26:44;;;;;;;8.40;4.93;;;;;;;;;;5115508;28;20067;-70
2022/05/14 10:28:27;;;;;;;10.57;5.15;;;;;;;;;;5115177;28;20555;-70
2022/05/14 10:31:01;;;;;;;6.32;4.53;;;;;;;;;;5097851;28;20070;-70
2022/05/14 10:33:30;;;;;;;5.55;4.82;;;;;;;;;;5115575;28;20076;-70
2022/05/14 10:36:09;;;;;;;9.23;5.10;;;;;;;;;;5115508;28;20042;-70
2022/05/14 10:38:35;;;;;;;7.47;4.95;;;;;;;;;;5115226;28;20172;-70
2022/05/14 10:41:07;;;;;;;6.75;4.85;;;;;;;;;;5115212;28;20062;-70
2022/05/14 10:43:44;;;;;;;6.45;4.30;;;;;;;;;;5115601;28;20078;-70
2022/05/14 10:46:11;;;;;;;6.55;5.90;;;;;;;;;;5115244;28;20619;-70
2022/05/14 10:48:43;;;;;;;7.38;4.95;;;;;;;;;;5115209;28;20040;-70
2022/05/14 10:51:11;;;;;;;5.03;4.60;;;;;;;;;;5115019;28;20506;-70
2022/05/14 10:53:39;;;;;;;7.00;4.82;;;;;;;;;;5115320;28;20047;-70
2022/05/14 10:56:09;;;;;;;6.20;4.60;;;;;;;;;;5114946;28;20035;-70
2022/05/14 10:58:45;;;;;;;7.63;5.30;;;;;;;;;;5115005;28;20050;-70
2022/05/14 11:01:27;;;;;;;6.97;4.93;;;;;;;;;;5115724;28;20040;-70
2022/05/14 11:04:02;;;;;;;8.25;5.28;;;;;;;;;;5115092;28;20494;-70
2022/05/14 11:06:30;;;;;;;5.80;4.70;;;;;;;;;;5115108;28;20039;-70
2022/05/14 11:08:56;;;;;;;7.50;4.80;;;;;;;;;;5115349;28;20479;-70
2022/05/14 11:11:29;;;;;;;5.07;4.60;;;;;;;;;;5114332;28;20063;-70
2022/05/14 11:14:03;;;;;;;7.65;4.80;;;;;;;;;;5115452;28;20063;-70
2022/05/14 11:16:56;;;;;;;8.77;4.72;;;;;;;;;;5115065;28;20043;-70
2022/05/14 11:19:29;;;;;;;6.82;4.68;;;;;;;;;;5111130;28;20054;-70
2022/05/14 11:21:55;;;;;;;6.32;4.68;;;;;;;;;;5115211;28;20567;-70
2022/05/14 11:24:31;;;;;;;9.57;5.00;;;;;;;;;;5115669;28;20047;-70
2022/05/14 11:26:58;;;;;;;5.95;4.80;;;;;;;;;;5115379;28;20035;-70
2022/05/14 11:29:28;;;;;;;5.80;5.18;;;;;;;;;;5115174;28;20040;-70
2022/05/14 11:31:56;;;;;;;6.10;5.10;;;;;;;;;;5115088;28;20513;-70
2022/05/14 11:34:25;;;;;;;6.40;4.60;;;;;;;;;;5115156;28;20048;-70
2022/05/14 11:36:54;;;;;;;7.40;4.75;;;;;;;;;;5114651;28;20040;-70
2022/05/14 11:39:23;;;;;;;8.65;5.32;;;;;;;;;;5114666;28;20035;-70
2022/05/14 11:41:51;;;;;;;11.02;4.85;;;;;;;;;;5115234;28;20066;-70
2022/05/14 11:44:46;;;;;;;8.00;4.75;;;;;;;;;;5115217;28;20055;-70
2022/05/14 11:47:50;;;;;;;7.88;4.65;;;;;;;;;;5097603;28;20100;-70
2022/05/14 11:50:19;;;;;;;6.65;4.72;;;;;;;;;;5031936;28;20120;-70
2022/05/14 11:53:00;;;;;;;7.40;5.18;;;;;;;;;;5031975;28;20120;-70
2022/05/14 11:55:29;;;;;;;8.43;4.45;;;;;;;;;;5081051;28;20126;-70
2022/05/14 11:58:03;;;;;;;9.73;4.65;;;;;;;;;;5114682;28;20062;-70
2022/05/14 12:00:32;;;;;;;8.50;4.38;;;;;;;;;;5115141;28;20502;-70
2022/05/14 12:03:01;;;;;;;7.20;4.60;;;;;;;;;;5115259;28;20043;-70
2022/05/14 12:05:33;;;;;;;4.65;4.25;;;;;;;;;;5114754;28;20052;-70
2022/05/14 12:07:59;;;;;;;7.13;4.65;;;;;;;;;;5114840;28;20044;-72
2022/05/14 12:10:25;;;;;;;9.63;4.60;;;;;;;;;;5114552;28;20043;-72
2022/05/14 12:12:51;;;;;;;6.53;4.68;;;;;;;;;;5114437;28;20056;-72
2022/05/14 12:15:22;;;;;;;6.88;4.03;;;;;;;;;;5114693;28;20470;-70
2022/05/14 12:17:49;;;;;;;6.47;4.43;;;;;;;;;;5114295;28;20050;-70
2022/05/14 12:20:23;;;;;;;8.10;4.53;;;;;;;;;;5114453;28;20093;-70
2022/05/14 12:22:54;;;;;;;7.97;4.55;;;;;;;;;;5115175;28;20055;-70
2022/05/14 12:25:21;;;;;;;5.72;3.95;;;;;;;;;;5117741;28;20050;-70
2022/05/14 12:27:48;;;;;;;10.18;4.28;;;;;;;;;;5117755;28;20047;-70
2022/05/14 12:33:11;;;;;;;8.60;5.28;;;;;;;;;;5117731;28;20070;-70
2022/05/14 12:33:13;;;;;;;6.97;4.10;;;;;;;;;;5117135;28;20049;-71
2022/05/14 12:35:42;;;;;;;8.13;3.88;;;;;;;;;;5118995;28;20039;-71
2022/05/14 12:38:09;;;;;;;9.88;4.38;;;;;;;;;;5117546;28;20039;-71
2022/05/14 12:40:38;;;;;;;6.80;4.07;;;;;;;;;;5117503;28;20522;-71
2022/05/14 12:43:09;;;;;;;6.13;4.45;;;;;;;;;;5118389;28;20044;-71
2022/05/14 12:45:39;;;;;;;6.28;4.32;;;;;;;;;;5117435;28;20048;-71
2022/05/14 12:48:06;;;;;;;8.18;4.32;;;;;;;;;;5117577;28;20044;-71
2022/05/14 12:50:33;;;;;;;6.90;4.53;;;;;;;;;;5117482;28;20036;-71
2022/05/14 12:53:00;;;;;;;4.65;4.25;;;;;;;;;;5117918;28;20054;-71
2022/05/14 12:55:27;;;;;;;5.20;3.85;;;;;;;;;;5117787;28;20043;-71
2022/05/14 12:57:54;;;;;;;6.60;4.40;;;;;;;;;;5117184;28;20040;-71
2022/05/14 13:00:22;;;;;;;5.30;4.43;;;;;;;;;;5117410;28;20047;-71
2022/05/14 13:02:52;;;;;;;5.50;4.90;;;;;;;;;;5116903;28;20071;-71
2022/05/14 13:05:24;;;;;;;7.72;4.25;;;;;;;;;;5117304;28;20051;-71
2022/05/14 13:07:50;;;;;;;6.55;4.60;;;;;;;;;;5117016;28;20039;-71
2022/05/14 13:10:23;;;;;;;5.72;4.22;;;;;;;;;;5116979;28;20363;-71
2022/05/14 13:13:00;;;;;;;5.93;4.47;;;;;;;;;;5117170;28;20486;-70
2022/05/14 13:15:34;;;;;;;7.00;4.78;;;;;;;;;;5117451;28;20040;-70
2022/05/14 13:18:10;;;;;;;5.55;4.38;;;;;;;;;;5116850;28;20038;-70
2022/05/14 13:20:36;;;;;;;5.53;4.60;;;;;;;;;;5117373;28;20050;-70
2022/05/14 13:23:11;;;;;;;5.72;4.22;;;;;;;;;;5117047;28;20044;-70
2022/05/14 13:25:38;;;;;;;4.68;4.25;;;;;;;;;;5117148;28;20138;-70
2022/05/14 13:28:10;;;;;;;4.72;4.18;;;;;;;;;;5116867;28;20510;-70
2022/05/14 13:30:36;;;;;;;5.57;3.92;;;;;;;;;;5116948;28;20070;-70
2022/05/14 13:33:03;;;;;;;6.38;4.70;;;;;;;;;;5117271;28;20043;-70
2022/05/14 13:38:14;;;;;;;7.40;4.30;;;;;;;;;;5116201;28;20119;-70
2022/05/14 13:40:43;;;;;;;6.05;4.22;;;;;;;;;;5116652;28;20073;-68
2022/05/14 13:43:12;;;;;;;5.95;4.35;;;;;;;;;;5116681;28;20085;-68
2022/05/14 13:45:39;;;;;;;5.00;4.18;;;;;;;;;;5116554;28;20513;-67
2022/05/14 13:48:08;;;;;;;5.43;4.03;;;;;;;;;;5116384;28;20031;-68
2022/05/14 13:50:39;;;;;;;5.45;4.18;;;;;;;;;;5116147;28;20093;-70
2022/05/14 13:53:07;;;;;;;6.75;4.65;;;;;;;;;;5116756;28;20058;-70
2022/05/14 13:55:35;;;;;;;5.68;4.30;;;;;;;;;;5116334;28;20039;-69
2022/05/14 13:58:03;;;;;;;4.90;4.43;;;;;;;;;;5116900;28;20165;-69
2022/05/14 14:00:33;;;;;;;4.13;3.72;;;;;;;;;;5116248;28;20040;-70
2022/05/14 14:03:05;;;;;;;6.37;4.97;;;;;;;;;;5115963;28;20528;-69
2022/05/14 14:05:32;;;;;;;6.82;4.43;;;;;;;;;;5116329;28;20048;-70
2022/05/14 14:07:58;;;;;;;9.13;4.20;;;;;;;;;;5116407;28;20040;-69
2022/05/14 14:10:34;;;;;;;8.73;4.47;;;;;;;;;;5116109;28;20074;-70
2022/05/14 14:13:01;;;;;;;6.82;4.65;;;;;;;;;;5115922;28;20056;-69
2022/05/14 14:15:29;;;;;;;4.40;4.00;;;;;;;;;;5116516;28;20043;-69
2022/05/14 14:17:55;;;;;;;9.90;4.80;;;;;;;;;;5115793;28;20067;-70
2022/05/14 14:20:23;;;;;;;7.38;3.92;;;;;;;;;;5115859;28;20521;-70
2022/05/14 14:22:49;;;;;;;7.50;4.47;;;;;;;;;;5116212;28;20036;-70
2022/05/14 14:25:16;;;;;;;7.10;3.90;;;;;;;;;;5116016;28;20040;-70
2022/05/14 14:27:43;;;;;;;6.28;4.28;;;;;;;;;;5115751;28;20040;-69
2022/05/14 14:30:10;;;;;;;4.90;3.53;;;;;;;;;;5115737;28;20038;-70
2022/05/14 14:32:37;;;;;;;6.30;4.40;;;;;;;;;;5115909;28;20048;-69
2022/05/14 14:35:04;;;;;;;4.97;4.15;;;;;;;;;;5115573;28;20041;-70
2022/05/14 14:37:30;;;;;;;6.20;4.20;;;;;;;;;;5115827;28;20118;-69
2022/05/14 14:39:56;;;;;;;6.35;4.28;;;;;;;;;;5115823;28;20123;-70
2022/05/14 14:42:23;;;;;;;4.50;4.10;;;;;;;;;;5115608;28;20127;-70
2022/05/14 14:44:51;;;;;;;4.65;4.00;;;;;;;;;;5116090;28;20043;-69
2022/05/14 14:47:17;;;;;;;4.50;4.10;;;;;;;;;;5115349;28;20042;-70
2022/05/14 14:49:43;;;;;;;4.72;3.65;;;;;;;;;;5115428;28;20031;-70
2022/05/14 14:52:10;;;;;;;6.03;4.25;;;;;;;;;;5115461;28;20463;-70
2022/05/14 14:54:36;;;;;;;5.53;3.83;;;;;;;;;;5116218;28;20032;-70
2022/05/14 14:57:02;;;;;;;5.85;3.83;;;;;;;;;;5115574;28;20073;-70
2022/05/14 14:59:29;;;;;;;4.13;3.72;;;;;;;;;;5115437;28;20368;-69
2022/05/14 15:02:00;;;;;;;6.95;4.10;;;;;;;;;;5115477;28;20035;-70
2022/05/14 15:04:33;;;;;;;7.05;4.00;;;;;;;;;;5115055;28;20417;-70
2022/05/14 15:07:00;;;;;;;6.82;3.63;;;;;;;;;;5115424;28;20184;-69
2022/05/14 15:09:26;;;;;;;5.43;4.40;;;;;;;;;;5115740;28;20039;-69